Terminal Aerodrome Forecast
Issued by NWS Wilmington, OH

Home | Current Version | Previous Version | Text Only | Print | Product List | Glossary On
Versions: 1 2 3 4 5 6 7 8 9 10 11 12 13 14 15
749
FTUS41 KILN 171135
TAFCMH
TAF
KCMH 171135Z 1712/1812 17007KT P6SM VCTS SCT040CB BKN100
      TEMPO 1712/1713 5SM -SHRA BKN040
     FM171600 20008KT P6SM VCTS SCT050CB BKN120
     FM171900 21010G18KT P6SM -SHRA VCTS BKN035CB
     FM180400 22007KT P6SM BKN090
     FM180900 23005KT 5SM BR SCT020=

USA.gov is the U.S. government's official web portal to all federal, state and local government web resources and services.